Hauptseite
METAR-TAF:

METAR-TAF

Flughäfen :

Gafsa, Tunesien

Breite: 34-25N, Länge: 008-49E, Höhe: 313 m

Beobachtung

Neuester Wetterbericht von vor 22 Minuten, um 12:00 UTC
Wind 10 kt aus Süd, variierte zwischen Südost und Süd/Südwest
Temperatur 36°C
Luftfeuchtigkeit 29%
Luftdruck 1012 hPa
Sichtweite 10 km oder mehr
keine Wolken unter 1500 m und keine Kumulonimbus oder Gewitterwolken

METAR: DTTF 181200Z 18010KT 140V210 CAVOK 36/15 Q1012 NOSIG

Zeit: 13:22 (12:22 UTC)

Prognose

Neuester Wetterbericht von vor 3 Stunden und 22 Minuten, um 09:00 UTC
Gültige Prognose vom 18 um 10 UTC bis 18 um 19 UTC
Wind 7 kt aus Südost
Sichtweite 10 km oder mehr
Leicht bewölkt in der Höhe von 2600 ft

TAF: DTTF 180900Z 1810/1819 14007KT 9999 FEW026

Wetterbeobachtungen und Prognosen von mehr als 4000 Flughäfen (METAR und TAF Bericht).

Die verfügbaren Stationen werden durch gelbe und rote Markierungen auf der Karte dargestellt.

Führen Sie die Maus auf sie, um den Namen der Station zu sehen.

Darauf klicken, um die Beobachtung von Wetterbeobachtungen und Prognosen zu sehen.

Um die Karte zu ändern : klicken Sie auf den grünen Tasten mit einem schwarzen Kreuz Zum Vergrößern, auf den grünen Button mit einem Gedankenstrich zu verkleinern, oder auf die grünen Pfeile für benachbarte Karten.


METAR-TAF: